Station: Portable Npws Nsw05  

  Atmospheric Gas Attenuation - ITU Rec 676-11   ----------------- dB/100km -----------------
Date Time Temp RH % AH g/m3 Dew Point Wind Direction Speed kph Gust kph Barometer mB Rainfall Since 9am 24GHz 47GHz 76GHz 122GHz 134GHz 241GHz
08/05 12:20 21.4 38 7.12 6.5 4 6 1013.1 0 16.1 21.7 31.0 81.0 72.2 247.4
08/05 12:10 21.3 37 6.9 6.2 6 7 1013.1 0 15.7 21.4 30.3 79.1 69.8 239.1
08/05 11:40 21.3 39 7.27 6.8 2 4 1013.1 0 16.4 21.9 31.5 82.5 73.9 253.7
08/05 11:30 20.5 38 6.76 6 4 7 1013.1 0 15.4 21.4 30.1 78.6 68.9 235.8
08/05 11:10 20 41 7.08 6.6 6 13 1013.1 0 16.1 22.0 31.4 82.1 73.0 250.1
08/05 11:00 19.9 38 6.53 5.3 6 7 1013.1 0 14.9 21.2 29.5 77.1 66.8 228.5
08/05 10:50 20.1 40 6.95 6.3 4 7 1013.1 0 15.8 21.8 30.9 80.8 71.4 244.6
08/05 10:40 19.6 43 7.26 6.8 4 4 1013.1 0 16.5 22.3 32.2 84.2 75.4 258.7
08/05 10:30 19.2 39 6.43 5.2 4 4 1013.1 0 14.8 21.2 29.4 76.8 66.2 226.4
08/05 10:20 19.1 44 7.21 6.7 2 4 1013.1 0 16.4 22.4 32.2 84.2 75.3 258.2
08/05 09:50 17.6 43 6.45 5.1 4 6 1013.1 0 14.9 21.6 30.1 78.5 67.8 231.7
08/05 09:30 15.8 55 7.4 6.8 4 6 1013.1 0 16.9 23.5 34.2 89.6 80.8 277.1
08/05 09:20 15.4 55 7.23 6.6 4 9 1013.1 0 16.6 23.3 33.8 88.3 79.1 271.2
08/05 09:10 14.7 54 6.8 5.5 4 6 1013.1 0 15.7 22.8 32.5 84.8 74.5 255.0
08/05 09:00 14.4 52 6.43 4.7 4 7 1013.1 0 14.9 22.4 31.2 81.5 70.3 240.2
08/05 08:50 14 54 6.51 4.8 2 4 1013.1 0 15.1 22.6 31.7 82.7 71.7 244.8
08/05 08:30 12.8 59 6.61 5 2 4 1013.1 0 15.4 23.0 32.5 85.0 74.0 252.9
08/05 08:20 11.6 63 6.55 4.8 2 4 1013.1 0 15.3 23.3 32.8 85.6 74.4 254.0
08/05 08:00 10.2 68 6.47 4.7 2 4 1013.1 0 15.2 23.5 33.0 86.3 74.7 255.0
08/05 07:50 9.7 72 6.64 4.9 4 7 1013.1 0 15.6 23.9 33.9 88.7 77.4 264.3
08/05 07:40 8.8 70 6.09 3.7 2 6 1013.1 0 14.4 23.3 32.1 83.9 71.1 242.3
08/05 07:30 8.6 77 6.62 4.8 2 4 1013.1 0 15.6 24.2 34.3 89.7 78.2 267.0
08/05 07:20 8.7 71 6.14 3.8 2 4 1013.1 0 14.5 23.4 32.4 84.5 71.9 244.8
08/05 07:00 8.3 73 6.16 3.8 2 6 1013.1 0 14.6 23.5 32.6 85.2 72.5 247.0
08/05 06:50 8.1 73 6.08 3.6 0 6 1013.1 0 14.4 23.4 32.4 84.5 71.6 244.0
08/05 06:30 8.3 71 5.99 3.4 2 6 1013.1 0 14.2 23.2 31.9 83.4 70.3 239.3
08/05 06:20 8.7 68 5.88 3.2 2 4 1013.1 0 14.0 23.0 31.3 81.8 68.5 233.2
08/05 06:00 8.7 66 5.71 2.8 2 6 1013.1 0 13.6 22.7 30.7 80.1 66.4 225.6
08/05 05:50 8.7 70 6.06 3.5 6 7 1013.1 0 14.4 23.2 32.0 83.7 70.8 241.2
08/05 05:40 8.8 68 5.92 3.3 2 4 1013.1 0 14.1 23.0 31.5 82.1 69.0 234.7
08/05 05:20 8.6 66 5.67 2.6 4 6 1013.1 0 13.5 22.7 30.6 79.8 66.0 224.1
08/05 05:10 8.2 69 5.78 2.8 0 2 1013.1 0 13.8 22.9 31.2 81.3 67.7 230.1
08/05 05:00 8 69 5.71 2.7 2 6 1013.1 0 13.6 22.9 31.0 80.8 67.0 227.6
08/05 04:50 7.3 75 5.93 3.1 0 2 1013.1 0 14.1 23.4 32.1 83.8 70.4 239.6
08/05 04:30 8.1 67 5.58 2.4 4 6 1013.1 0 13.4 22.6 30.4 79.3 65.2 221.5
08/05 04:10 8.2 68 5.7 2.7 0 2 1013.1 0 13.6 22.8 30.8 80.5 66.7 226.6
08/05 04:00 8.5 68 5.81 2.9 2 4 1013.1 0 13.8 22.9 31.2 81.3 67.8 230.6
08/05 03:50 8.6 64 5.5 2.3 2 6 1013.1 0 13.2 22.4 29.9 78.0 63.8 216.6
08/05 03:40 8.7 64 5.54 2.3 2 4 1013.1 0 13.3 22.4 30.0 78.3 64.2 218.1
08/05 03:30 8.8 63 5.49 2.3 2 7 1013.1 0 13.1 22.3 29.8 77.7 63.5 215.6
08/05 03:20 8.6 64 5.5 2.2 4 6 1013.1 0 13.2 22.4 29.9 78.0 63.8 216.6
08/05 03:00 9.1 63 5.59 2.4 4 6 1013.1 0 13.4 22.4 30.1 78.5 64.5 219.2
08/05 02:50 9.5 59 5.37 2 6 13 1013.1 0 12.9 22.0 29.1 75.9 61.5 208.5
08/05 02:30 9 61 5.38 1.9 4 6 1013.1 0 12.9 22.1 29.3 76.4 62.0 210.3
08/05 02:20 9.2 60 5.36 1.9 4 4 1013.1 0 12.9 22.0 29.2 76.0 61.6 208.9
08/05 02:00 9.1 62 5.5 2.3 4 6 1013.1 0 13.2 22.3 29.7 77.5 63.4 215.2
08/05 01:50 9 60 5.29 1.7 4 7 1013.1 0 12.7 22.0 29.0 75.5 60.9 206.4
08/05 01:30 8.8 59 5.14 1.2 2 6 1013.1 0 12.4 21.8 28.5 74.2 59.2 200.4
08/05 01:20 8.8 59 5.14 1.2 2 4 1013.1 0 12.4 21.8 28.5 74.2 59.2 200.4
08/05 01:00 8.8 57 4.96 0.8 2 4 1013.1 0 12.0 21.5 27.8 72.4 57.0 192.6
08/05 00:50 8.6 58 4.99 0.9 2 2 1013.1 0 12.1 21.6 28.0 72.9 57.5 194.4
08/05 00:40 8.6 55 4.73 0.2 2 2 1013.1 0 11.5 21.2 27.1 70.4 54.3 183.2
08/05 00:30 8.7 58 5.02 0.9 2 4 1013.1 0 12.1 21.6 28.1 73.1 57.8 195.4
08/05 00:10 8.8 58 5.05 1.1 2 2 1013.1 0 12.2 21.7 28.2 73.3 58.1 196.5
08/05 00:00 8.9 55 4.82 0.4 2 4 1013.1 0 11.7 21.3 27.3 71.0 55.2 186.4
07/05 23:50 9 54 4.76 0.3 4 4 1013.1 0 11.6 21.2 27.0 70.3 54.4 183.6
07/05 23:40 9 53 4.67 0.1 2 4 1013.1 0 11.4 21.1 26.7 69.4 53.3 179.8
07/05 23:30 9.1 53 4.7 0 2 4 1013.1 0 11.5 21.1 26.8 69.6 53.6 180.8
07/05 23:10 9.1 52 4.62 -0.2 4 4 1013.1 0 11.3 21.0 26.5 68.8 52.7 177.4
07/05 23:00 9.2 53 4.73 0.1 2 4 1013.1 0 11.5 21.1 26.9 69.8 53.9 181.9
07/05 22:50 9.3 52 4.67 0 4 4 1013.1 0 11.4 21.0 26.6 69.2 53.1 179.1
07/05 22:40 9.3 54 4.85 0.6 4 6 1013.1 0 11.8 21.2 27.3 70.9 55.3 186.7
07/05 22:30 9.5 51 4.64 0 4 7 1013.1 0 11.3 20.9 26.4 68.7 52.6 177.4
07/05 22:20 9.2 53 4.73 0.1 2 4 1013.1 0 11.5 21.1 26.9 69.8 53.9 181.9
07/05 22:10 9.4 53 4.79 0.4 4 6 1013.1 0 11.6 21.1 27.0 70.2 54.5 184.0
07/05 22:00 9.4 51 4.61 -0.2 4 4 1013.1 0 11.3 20.9 26.4 68.5 52.3 176.4
07/05 21:50 9.3 53 4.76 0.2 4 4 1013.1 0 11.6 21.1 26.9 70.0 54.2 182.9
07/05 21:40 9.4 51 4.61 -0.2 4 6 1013.1 0 11.3 20.9 26.4 68.5 52.3 176.4
07/05 21:30 9.5 52 4.73 0.3 2 4 1013.1 0 11.5 21.0 26.8 69.6 53.7 181.2
07/05 21:20 9.6 50 4.58 -0.3 4 7 1013.1 0 11.2 20.8 26.2 68.0 51.9 174.7
07/05 21:10 9.7 48 4.43 -0.8 4 6 1013.1 0 10.9 20.5 25.6 66.5 50.0 168.2
07/05 21:00 9.7 47 4.33 -1 6 6 1013.1 0 10.6 20.4 25.3 65.6 48.8 164.1
07/05 20:50 9.7 48 4.43 -0.8 6 7 1013.1 0 10.9 20.5 25.6 66.5 50.0 168.2
07/05 20:40 9.7 49 4.52 -0.4 4 6 1013.1 0 11.1 20.7 25.9 67.4 51.1 172.0
07/05 20:30 9.8 47 4.36 -0.8 4 6 1013.1 0 10.7 20.4 25.3 65.8 49.1 165.1
07/05 20:20 9.6 47 4.31 -1 4 4 1013.1 0 10.6 20.4 25.2 65.5 48.7 163.5
07/05 20:10 9.7 49 4.52 -0.5 4 6 1013.1 0 11.1 20.7 25.9 67.4 51.1 172.0
07/05 20:00 9.7 47 4.33 -1 4 4 1013.1 0 10.6 20.4 25.3 65.6 48.8 164.1
07/05 19:50 9.8 48 4.45 -0.5 4 6 1013.1 0 10.9 20.6 25.7 66.6 50.2 168.8
07/05 19:40 9.7 49 4.52 -0.5 4 6 1013.1 0 11.1 20.7 25.9 67.4 51.1 172.0
07/05 19:30 9.6 48 4.4 -0.9 4 6 1013.1 0 10.8 20.5 25.5 66.3 49.7 167.2
07/05 19:20 9.4 47 4.25 -1.3 2 4 1013.1 0 10.5 20.4 25.1 65.0 48.1 161.4
07/05 19:10 9.6 54 4.95 0.7 4 4 1013.1 0 12.0 21.3 27.5 71.6 56.3 190.3
07/05 19:00 9.8 54 5.01 1 2 4 1013.1 0 12.1 21.4 27.7 72.0 56.9 192.3
07/05 18:40 10.6 44 4.3 -1.2 4 6 1013.1 0 10.6 20.2 24.9 64.6 47.9 161.1
07/05 18:30 10.9 45 4.48 -0.4 2 6 1013.1 0 10.9 20.3 25.4 66.0 49.9 167.8
07/05 18:20 11 49 4.91 0.8 4 6 1013.1 0 11.8 20.9 26.9 70.0 54.8 185.3
07/05 18:00 11.1 43 4.33 -1 4 4 1013.1 0 10.6 20.1 24.8 64.4 48.0 161.3
07/05 17:50 11.2 43 4.36 -0.7 4 6 1013.1 0 10.7 20.1 24.9 64.6 48.3 162.3
07/05 17:30 11.3 43 4.39 -0.6 4 6 1013.1 0 10.7 20.1 25.0 64.8 48.6 163.3
07/05 17:20 11.6 43 4.47 -0.5 4 7 1013.1 0 10.9 20.2 25.2 65.3 49.3 166.0
07/05 17:10 11.6 43 4.47 -0.6 4 7 1013.1 0 10.9 20.2 25.2 65.3 49.3 166.0
07/05 17:00 11.7 41 4.29 -1 4 6 1013.1 0 10.5 19.9 24.5 63.6 47.2 158.5
07/05 16:50 11.9 41 4.34 -0.7 4 6 1013.1 0 10.6 19.9 24.6 63.9 47.6 160.1
07/05 16:30 12.4 39 4.26 -1.2 6 9 1013.1 0 10.4 19.7 24.2 62.8 46.4 156.0
07/05 16:20 12.7 40 4.45 -0.5 6 7 1013.1 0 10.8 19.9 24.8 64.3 48.4 162.9
07/05 16:10 13.2 38 4.36 -0.7 6 7 1013.1 0 10.6 19.7 24.3 63.1 47.1 158.4
07/05 15:50 14.6 33 4.13 -1.2 6 7 1013.1 0 10.1 19.1 23.2 60.0 43.8 146.8
07/05 15:40 15 34 4.36 -0.7 6 7 1013.1 0 10.6 19.3 23.8 61.7 46.1 155.0
07/05 15:30 15.2 32 4.15 -1.1 7 9 1013.1 0 10.1 19.0 23.1 59.7 43.7 146.5

Last Refresh: 08-May-2026 12:07:13

Bureau of Meteorology